GRZ508 Details

Departure: Wiley Post-Will Rogers Memorial Airport (PABR)
Arrival: Fairbanks International Airport (PAFA) at N/A
Route: BRW J515 BTT FAI
Notes:


Current Weather Information
PABR 250353Z 27018G26KT 10SM FEW039 OVC055 07/05 A2958 RMK AO2 PK WND 27026/0349 SLP018 T00720050 $
PAFA 250353Z VRB04KT 10SM FEW060 FEW180 16/01 A2977 RMK AO2 SLP085 T01560006